Time;durP1;ratioP1;P1;durP2;ratioP2;P2;SDS_P1;SDS_P2;PMS_P1;PMS_P2;Temp;Humidity;BMP_temperature;BMP_pressure;BME280_temperature;BME280_humidity;BME280_pressure;Samples;Min_cycle;Max_cycle;Signal;HPM_P1;HPM_P2
2022/07/02 00:02:18;;;;;;;6.43;1.88;;;26.00;70.70;;;;;;5013838;28;20052;-89
2022/07/02 00:04:48;;;;;;;3.92;1.98;;;26.10;70.70;;;;;;5015134;28;20030;-89
2022/07/02 00:07:14;;;;;;;5.20;2.13;;;26.20;70.50;;;;;;5013613;28;20113;-89
2022/07/02 00:09:40;;;;;;;4.32;2.00;;;26.10;70.20;;;;;;5015018;28;20074;-89
2022/07/02 00:12:09;;;;;;;3.83;2.00;;;26.10;69.90;;;;;;5016154;28;20033;-90
2022/07/02 00:14:36;;;;;;;3.65;1.77;;;26.10;70.30;;;;;;5015316;28;20355;-88
2022/07/02 00:17:03;;;;;;;7.03;2.17;;;26.00;69.80;;;;;;5013117;28;20124;-79
2022/07/02 00:19:30;;;;;;;6.60;1.90;;;26.00;69.90;;;;;;5014157;28;20025;-79
2022/07/02 00:21:58;;;;;;;3.75;1.85;;;26.00;69.70;;;;;;5014084;28;20033;-79
2022/07/02 00:24:23;;;;;;;5.65;2.55;;;26.00;69.20;;;;;;5013730;28;20036;-79
2022/07/02 00:26:54;;;;;;;4.32;1.90;;;26.00;67.90;;;;;;5010073;28;20031;-78
2022/07/02 00:29:50;;;;;;;5.38;1.80;;;26.00;69.00;;;;;;5014840;28;20359;-78
2022/07/02 00:32:16;;;;;;;9.30;2.28;;;26.00;68.60;;;;;;5013293;28;20026;-88
2022/07/02 00:34:44;;;;;;;8.82;1.98;;;25.90;67.90;;;;;;5010863;28;20037;-87
2022/07/02 00:37:11;;;;;;;2.95;1.65;;;25.80;67.70;;;;;;5013507;28;20092;-87
2022/07/02 00:39:37;;;;;;;3.72;2.00;;;25.90;68.70;;;;;;5011910;28;20658;-87
2022/07/02 00:42:04;;;;;;;3.95;2.40;;;25.90;68.00;;;;;;5014011;28;20030;-86
2022/07/02 00:44:31;;;;;;;6.00;1.90;;;25.90;67.60;;;;;;5014152;28;20026;-87
2022/07/02 00:47:04;;;;;;;6.93;2.45;;;25.90;67.90;;;;;;5015281;28;20040;-86
2022/07/02 00:49:32;;;;;;;3.97;1.75;;;25.80;67.70;;;;;;5013773;28;20080;-87
2022/07/02 00:51:58;;;;;;;3.05;1.70;;;25.80;68.40;;;;;;5002227;28;20129;-87
2022/07/02 00:54:23;;;;;;;5.50;2.25;;;25.80;68.50;;;;;;5013380;28;20530;-87
2022/07/02 00:56:52;;;;;;;6.90;2.17;;;25.80;68.40;;;;;;5012780;28;20084;-87
2022/07/02 00:59:19;;;;;;;4.63;2.00;;;25.90;68.70;;;;;;5010531;28;20022;-88
2022/07/02 01:01:45;;;;;;;7.70;2.35;;;25.80;68.60;;;;;;5013189;28;20034;-90
2022/07/02 01:04:15;;;;;;;6.13;2.45;;;25.80;67.60;;;;;;5012199;28;20095;-80
2022/07/02 01:06:42;;;;;;;3.67;1.85;;;25.70;67.50;;;;;;5011593;28;20041;-80
2022/07/02 01:11:57;;;;;;;3.63;1.50;;;25.60;68.50;;;;;;5012824;28;20068;-80
2022/07/02 01:14:24;;;;;;;3.45;1.67;;;25.70;68.80;;;;;;5012363;28;20099;-80
2022/07/02 01:16:49;;;;;;;5.53;1.90;;;25.70;68.80;;;;;;5011790;28;20040;-80
2022/07/02 01:19:17;;;;;;;2.90;1.30;;;25.80;69.00;;;;;;5013340;28;20030;-81
2022/07/02 01:22:11;;;;;;;6.22;1.70;;;25.90;69.00;;;;;;5013221;28;20064;-81
2022/07/02 01:24:37;;;;;;;3.58;1.63;;;25.90;68.30;;;;;;5010833;28;20041;-82
2022/07/02 01:27:03;;;;;;;4.68;1.90;;;25.90;68.80;;;;;;5009763;28;20026;-82
2022/07/02 01:29:28;;;;;;;4.47;1.85;;;25.90;68.70;;;;;;5010353;28;20084;-86
2022/07/02 01:31:54;;;;;;;5.10;1.85;;;26.00;69.00;;;;;;5010256;28;20030;-87
2022/07/02 01:34:20;;;;;;;3.60;1.48;;;26.00;68.90;;;;;;5013219;28;20022;-86
2022/07/02 01:36:46;;;;;;;2.88;1.60;;;26.00;69.00;;;;;;5012481;28;20100;-87
2022/07/02 01:39:12;;;;;;;4.13;1.48;;;25.90;69.10;;;;;;5012650;28;20454;-87
2022/07/02 01:41:40;;;;;;;2.05;1.30;;;25.90;69.10;;;;;;5012648;28;20037;-87
2022/07/02 01:44:07;;;;;;;6.40;1.80;;;25.90;68.90;;;;;;5013705;28;20105;-87
2022/07/02 01:46:33;;;;;;;3.15;1.88;;;25.90;68.80;;;;;;5011850;28;20033;-89
2022/07/02 01:48:58;;;;;;;5.05;1.90;;;25.80;68.20;;;;;;5013016;28;20096;-81
2022/07/02 01:51:24;;;;;;;4.93;2.35;;;25.80;68.50;;;;;;5012781;28;20495;-81
2022/07/02 01:53:50;;;;;;;5.00;1.52;;;25.70;67.90;;;;;;5012276;28;20046;-81
2022/07/02 01:56:16;;;;;;;2.72;1.95;;;25.70;68.40;;;;;;5010007;28;20095;-81
2022/07/02 01:58:41;;;;;;;3.42;1.77;;;25.60;68.30;;;;;;5011502;28;20053;-81
2022/07/02 02:01:07;;;;;;;3.20;1.85;;;25.60;68.70;;;;;;5012623;28;20482;-81
2022/07/02 02:03:32;;;;;;;4.60;2.08;;;25.50;68.60;;;;;;5010227;28;20053;-81
2022/07/02 02:05:58;;;;;;;4.30;1.75;;;25.50;68.20;;;;;;5010744;28;20042;-81
2022/07/02 02:08:24;;;;;;;3.92;1.63;;;25.50;68.70;;;;;;5011811;28;20032;-80
2022/07/02 02:10:50;;;;;;;6.10;1.95;;;25.50;68.00;;;;;;5013407;28;20486;-80
2022/07/02 02:13:16;;;;;;;5.47;1.70;;;25.40;68.90;;;;;;5012598;28;20049;-80
2022/07/02 02:15:41;;;;;;;2.22;1.33;;;25.50;68.80;;;;;;5010401;28;20030;-81
2022/07/02 02:18:07;;;;;;;5.18;1.70;;;25.50;68.80;;;;;;5010120;28;20072;-81
2022/07/02 02:20:33;;;;;;;4.05;1.58;;;25.50;68.50;;;;;;5010751;28;20053;-82
2022/07/02 02:23:01;;;;;;;3.65;1.35;;;25.50;68.70;;;;;;5011107;28;20054;-81
2022/07/02 02:25:26;;;;;;;4.80;1.65;;;25.40;68.80;;;;;;5012203;28;20109;-81
2022/07/02 02:27:52;;;;;;;3.47;1.65;;;25.50;68.80;;;;;;5014323;28;20149;-81
2022/07/02 02:30:18;;;;;;;5.10;1.55;;;25.60;68.90;;;;;;5014791;28;20364;-81
2022/07/02 02:32:44;;;;;;;3.47;1.58;;;25.60;68.30;;;;;;5015049;28;20034;-81
2022/07/02 02:35:09;;;;;;;9.18;1.67;;;25.50;68.00;;;;;;5017055;28;20034;-81
2022/07/02 02:37:35;;;;;;;3.08;1.55;;;25.30;67.10;;;;;;5013428;28;20045;-77
2022/07/02 02:40:01;;;;;;;3.25;1.67;;;25.30;67.80;;;;;;5015821;28;20030;-78
2022/07/02 02:42:26;;;;;;;5.40;1.80;;;25.30;68.00;;;;;;5015987;28;20037;-79
2022/07/02 02:44:52;;;;;;;3.55;1.70;;;25.20;67.80;;;;;;5015641;28;20485;-79
2022/07/02 02:47:21;;;;;;;5.22;1.77;;;25.20;68.20;;;;;;5014238;28;20034;-79
2022/07/02 02:49:47;;;;;;;6.70;1.48;;;25.10;68.30;;;;;;5016008;28;20172;-79
2022/07/02 02:52:13;;;;;;;2.20;1.10;;;25.20;68.50;;;;;;5015008;28;20116;-77
2022/07/02 02:54:39;;;;;;;2.28;1.45;;;25.30;68.50;;;;;;5016227;28;20030;-78
2022/07/02 02:57:05;;;;;;;3.88;1.65;;;25.40;68.50;;;;;;5014020;28;20048;-79
2022/07/02 02:59:30;;;;;;;4.32;1.48;;;25.50;68.50;;;;;;5015282;28;20022;-78
2022/07/02 03:01:56;;;;;;;3.38;1.50;;;25.50;68.20;;;;;;5015784;28;20029;-78
2022/07/02 03:04:22;;;;;;;4.10;1.50;;;25.50;68.10;;;;;;5015677;28;20084;-79
2022/07/02 03:06:47;;;;;;;3.85;1.77;;;25.50;67.50;;;;;;5013902;28;20088;-78
2022/07/02 03:09:13;;;;;;;2.97;1.33;;;25.60;67.70;;;;;;5014689;28;20030;-79
2022/07/02 03:11:39;;;;;;;3.60;1.65;;;25.60;67.60;;;;;;5014057;28;20026;-79
2022/07/02 03:14:04;;;;;;;2.72;1.23;;;25.60;67.60;;;;;;5015246;28;20040;-80
2022/07/02 03:16:30;;;;;;;6.32;1.30;;;25.60;67.70;;;;;;5013816;28;20029;-80
2022/07/02 03:18:55;;;;;;;2.28;1.17;;;25.60;67.40;;;;;;5016042;28;20084;-81
2022/07/02 03:21:21;;;;;;;2.28;1.20;;;25.70;67.50;;;;;;5013857;28;20034;-81
2022/07/02 03:23:47;;;;;;;3.33;1.45;;;25.70;67.50;;;;;;5013832;28;20428;-81
2022/07/02 03:26:13;;;;;;;4.00;1.30;;;25.70;67.40;;;;;;5015103;28;20033;-80
2022/07/02 03:28:38;;;;;;;2.97;1.42;;;25.70;67.50;;;;;;5013159;28;20402;-79
2022/07/02 03:31:04;;;;;;;3.45;1.35;;;25.70;67.30;;;;;;5014441;28;20030;-79
2022/07/02 03:33:29;;;;;;;1.77;1.15;;;25.70;67.20;;;;;;5014742;28;20037;-80
2022/07/02 03:35:55;;;;;;;3.13;1.20;;;25.70;67.20;;;;;;5015929;28;20030;-79
2022/07/02 03:38:21;;;;;;;4.00;1.30;;;25.60;66.90;;;;;;5016333;28;20038;-84
2022/07/02 03:40:54;;;;;;;6.13;1.70;;;25.60;67.10;;;;;;5018100;28;20026;-81
2022/07/02 03:43:20;;;;;;;3.80;1.85;;;25.60;67.10;;;;;;5018843;28;20057;-80
2022/07/02 03:45:45;;;;;;;3.30;1.20;;;25.60;66.40;;;;;;5016079;28;20462;-78
2022/07/02 03:48:11;;;;;;;3.08;1.40;;;25.30;66.20;;;;;;5014927;28;20073;-78
2022/07/02 03:50:40;;;;;;;4.07;1.75;;;25.20;66.50;;;;;;5014322;28;20356;-79
2022/07/02 03:53:06;;;;;;;4.95;1.83;;;25.30;67.00;;;;;;5012137;28;20475;-79
2022/07/02 03:55:32;;;;;;;3.20;1.42;;;25.30;67.10;;;;;;5014645;28;20034;-78
2022/07/02 03:57:58;;;;;;;3.13;1.02;;;25.30;67.10;;;;;;5029014;28;20470;-79
2022/07/02 04:00:24;;;;;;;3.65;1.42;;;25.30;67.30;;;;;;5012224;28;20457;-79
2022/07/02 04:02:50;;;;;;;5.45;1.70;;;25.30;67.00;;;;;;5013072;28;20033;-82
2022/07/02 04:05:15;;;;;;;3.15;1.20;;;25.30;67.30;;;;;;5014610;28;20364;-81
2022/07/02 04:07:41;;;;;;;4.68;1.13;;;25.30;67.50;;;;;;5013139;28;20026;-80
2022/07/02 04:10:07;;;;;;;5.68;1.55;;;25.30;67.40;;;;;;5012600;28;20061;-81
2022/07/02 04:12:33;;;;;;;1.52;1.00;;;25.30;67.10;;;;;;5013772;28;20032;-81
2022/07/02 04:14:59;;;;;;;2.13;1.08;;;25.40;67.10;;;;;;5012536;28;20086;-80
2022/07/02 04:17:25;;;;;;;3.13;1.33;;;25.40;67.10;;;;;;5013254;28;20390;-80
2022/07/02 04:19:50;;;;;;;3.63;1.40;;;25.40;67.50;;;;;;5014364;28;20080;-80
2022/07/02 04:22:16;;;;;;;3.33;1.58;;;25.40;67.50;;;;;;5013092;28;20104;-81
2022/07/02 04:24:42;;;;;;;1.98;1.08;;;25.40;67.30;;;;;;5013138;28;20113;-81
2022/07/02 04:27:07;;;;;;;3.83;1.50;;;25.40;67.80;;;;;;5013531;28;20478;-81
2022/07/02 04:29:33;;;;;;;4.20;1.35;;;25.40;68.00;;;;;;5013939;28;20365;-80
2022/07/02 04:31:59;;;;;;;2.60;1.42;;;25.40;68.00;;;;;;5012899;28;20530;-80
2022/07/02 04:34:24;;;;;;;3.58;1.42;;;25.40;68.30;;;;;;5011982;28;20071;-78
2022/07/02 04:36:50;;;;;;;4.38;1.50;;;25.40;68.10;;;;;;5012839;28;20030;-78
2022/07/02 04:39:16;;;;;;;4.38;1.67;;;25.40;68.00;;;;;;5014765;28;20030;-89
2022/07/02 04:41:41;;;;;;;3.33;1.48;;;25.40;68.10;;;;;;5014019;28;20045;-89
2022/07/02 04:44:07;;;;;;;4.30;1.67;;;25.40;68.50;;;;;;5014739;28;20030;-89
2022/07/02 04:46:33;;;;;;;2.95;1.42;;;25.40;68.50;;;;;;5013881;28;20434;-89
2022/07/02 04:48:59;;;;;;;4.22;1.38;;;25.40;68.60;;;;;;5014014;28;20053;-90
2022/07/02 04:51:26;;;;;;;4.53;1.42;;;25.50;68.80;;;;;;5014194;28;20382;-90
2022/07/02 04:53:52;;;;;;;4.10;1.83;;;25.50;68.50;;;;;;5014367;28;20033;-89
2022/07/02 04:56:17;;;;;;;5.57;1.40;;;25.50;68.20;;;;;;5012968;28;20033;-79
2022/07/02 04:58:43;;;;;;;4.32;1.60;;;25.50;68.30;;;;;;5013868;28;20110;-89
2022/07/02 05:01:10;;;;;;;3.70;1.38;;;25.50;68.60;;;;;;5013030;28;20049;-90
2022/07/02 05:03:36;;;;;;;5.05;1.63;;;25.50;68.40;;;;;;5012811;28;20033;-91
2022/07/02 05:06:01;;;;;;;5.10;1.30;;;25.50;68.70;;;;;;5012444;28;20057;-80
2022/07/02 05:08:27;;;;;;;4.43;1.80;;;25.50;68.80;;;;;;5011328;28;20057;-79
2022/07/02 05:10:53;;;;;;;4.80;1.65;;;25.60;69.00;;;;;;5012910;28;20037;-80
2022/07/02 05:13:20;;;;;;;4.97;1.55;;;25.60;69.40;;;;;;5020088;28;20027;-80
2022/07/02 05:15:46;;;;;;;3.17;1.40;;;25.60;69.70;;;;;;5018715;28;20034;-81
2022/07/02 05:18:12;;;;;;;2.97;1.40;;;25.60;68.30;;;;;;5010267;28;20033;-80
2022/07/02 05:20:38;;;;;;;6.70;1.42;;;25.60;68.80;;;;;;5012347;28;20116;-80
2022/07/02 05:23:04;;;;;;;2.38;1.45;;;25.60;68.70;;;;;;5010451;28;20061;-80
2022/07/02 05:25:30;;;;;;;2.88;1.27;;;25.60;68.20;;;;;;5012736;28;20054;-80
2022/07/02 05:27:55;;;;;;;2.55;1.10;;;25.60;68.20;;;;;;5033186;23;20049;-81
2022/07/02 05:30:21;;;;;;;3.97;1.42;;;25.70;68.40;;;;;;5048306;28;20025;-81
2022/07/02 05:32:46;;;;;;;3.75;1.55;;;25.70;68.90;;;;;;5044062;28;20468;-81
2022/07/02 05:35:12;;;;;;;11.18;2.75;;;25.70;67.80;;;;;;5041011;28;20112;-80
2022/07/02 05:37:49;;;;;;;4.63;1.42;;;25.70;65.90;;;;;;5044725;28;20124;-80
2022/07/02 05:40:16;;;;;;;2.33;1.60;;;25.70;67.20;;;;;;5033970;28;20117;-80
2022/07/02 05:42:41;;;;;;;8.52;1.90;;;25.80;67.60;;;;;;5048453;28;20521;-80
2022/07/02 05:45:07;;;;;;;2.83;1.40;;;25.70;66.70;;;;;;5050505;28;20315;-88
2022/07/02 05:47:33;;;;;;;3.35;0.95;;;25.70;67.40;;;;;;5053075;28;20473;-88
2022/07/02 05:49:59;;;;;;;3.17;1.17;;;25.70;67.70;;;;;;5051962;28;20045;-80
2022/07/02 05:52:24;;;;;;;2.78;1.45;;;25.80;67.40;;;;;;5051792;28;20462;-80
2022/07/02 05:54:50;;;;;;;2.10;1.20;;;25.70;66.70;;;;;;5050673;28;20469;-81
2022/07/02 05:57:29;;;;;;;3.88;1.75;;;25.70;67.20;;;;;;5049763;28;20060;-81
2022/07/02 05:59:56;;;;;;;6.03;1.53;;;25.70;67.30;;;;;;5047796;28;20178;-79
2022/07/02 06:02:23;;;;;;;6.53;1.60;;;25.70;67.40;;;;;;5050661;28;20279;-78
2022/07/02 06:04:49;;;;;;;4.88;1.30;;;25.80;67.70;;;;;;5044150;28;20052;-79
2022/07/02 06:09:59;;;;;;;3.22;1.52;;;26.00;68.00;;;;;;5048353;28;20122;-79
2022/07/02 06:12:25;;;;;;;10.65;2.20;;;26.10;68.00;;;;;;5047380;28;20140;-80
2022/07/02 06:14:51;;;;;;;6.65;1.65;;;26.10;67.50;;;;;;5051038;28;20112;-79
2022/07/02 06:17:17;;;;;;;4.32;1.38;;;26.10;67.80;;;;;;5051351;28;20037;-79
2022/07/02 06:19:45;;;;;;;3.80;1.67;;;26.20;67.80;;;;;;5045999;28;20421;-81
2022/07/02 06:22:11;;;;;;;3.92;1.27;;;26.20;67.50;;;;;;5046353;28;20037;-80
2022/07/02 06:24:36;;;;;;;4.57;1.42;;;26.30;67.50;;;;;;5051629;28;20036;-80
2022/07/02 06:27:02;;;;;;;4.47;1.67;;;26.30;67.50;;;;;;5048686;28;20013;-86
2022/07/02 06:29:28;;;;;;;4.53;2.00;;;26.40;66.90;;;;;;5047648;28;20067;-80
2022/07/02 06:31:54;;;;;;;5.13;1.60;;;26.40;67.00;;;;;;5046922;28;20481;-80
2022/07/02 06:34:20;;;;;;;6.72;2.03;;;26.50;66.90;;;;;;5048495;28;20017;-80
2022/07/02 06:36:46;;;;;;;4.90;2.00;;;26.60;67.00;;;;;;5050623;28;20452;-80
2022/07/02 06:39:11;;;;;;;5.03;1.73;;;26.60;66.40;;;;;;5049368;28;20072;-78
2022/07/02 06:44:21;;;;;;;5.97;2.10;;;26.80;66.50;;;;;;5050954;28;20146;-80
2022/07/02 06:46:47;;;;;;;7.57;1.55;;;26.90;66.40;;;;;;5052408;28;20048;-79
2022/07/02 06:49:13;;;;;;;3.88;1.77;;;27.00;66.50;;;;;;5052404;28;20061;-79
2022/07/02 06:51:38;;;;;;;6.15;2.17;;;27.00;67.00;;;;;;5049391;28;20090;-80
2022/07/02 06:54:04;;;;;;;4.57;1.48;;;27.10;66.40;;;;;;5048011;28;20036;-80
2022/07/02 06:56:35;;;;;;;3.85;2.10;;;27.10;66.40;;;;;;5050426;28;20127;-81
2022/07/02 06:59:05;;;;;;;4.20;2.05;;;27.20;66.40;;;;;;5051281;28;20027;-81
2022/07/02 07:01:31;;;;;;;;;;;27.30;66.10;;;;;;5050696;28;20028;-80
2022/07/02 07:03:57;;;;;;;9.30;2.47;;;27.30;66.10;;;;;;5050768;28;20383;-80
2022/07/02 07:06:24;;;;;;;7.65;2.13;;;27.30;66.10;;;;;;5047373;28;20025;-81
2022/07/02 07:08:53;;;;;;;7.75;2.70;;;27.40;65.80;;;;;;5051331;28;20112;-81
2022/07/02 07:11:22;;;;;;;4.22;2.42;;;27.40;65.70;;;;;;5050737;28;20029;-81
2022/07/02 07:13:48;;;;;;;13.95;2.17;;;27.50;65.90;;;;;;5050153;28;20083;-81
2022/07/02 07:16:14;;;;;;;5.13;2.58;;;27.50;66.40;;;;;;5053701;28;20469;-86
2022/07/02 07:18:41;;;;;;;7.65;1.95;;;27.60;65.80;;;;;;5055252;28;20040;-86
2022/07/02 07:21:07;;;;;;;3.95;2.22;;;27.70;65.90;;;;;;5054962;28;20473;-86
2022/07/02 07:23:32;;;;;;;4.65;1.70;;;27.70;65.50;;;;;;5039027;28;20041;-86
2022/07/02 07:26:38;;;;;;;9.65;2.42;;;27.80;65.60;;;;;;5053736;28;20032;-86
2022/07/02 07:29:06;;;;;;;4.88;2.05;;;27.80;64.00;;;;;;5050342;28;20053;-85
2022/07/02 07:31:33;;;;;;;3.80;1.77;;;27.90;64.60;;;;;;5054394;28;20036;-88
2022/07/02 07:33:59;;;;;;;4.90;2.20;;;27.90;64.80;;;;;;5054586;28;20105;-88
2022/07/02 07:36:26;;;;;;;6.05;2.00;;;28.00;64.80;;;;;;5055061;28;20474;-89
2022/07/02 07:38:52;;;;;;;5.28;2.20;;;28.10;64.70;;;;;;5054418;28;20124;-88
2022/07/02 07:41:20;;;;;;;7.13;2.30;;;28.10;64.70;;;;;;5054670;28;20238;-84
2022/07/02 07:43:46;;;;;;;6.03;2.08;;;28.10;63.40;;;;;;5051598;28;20029;-85
2022/07/02 07:46:12;;;;;;;13.15;2.53;;;28.20;63.90;;;;;;5051993;28;20021;-85
2022/07/02 07:48:38;;;;;;;4.53;2.08;;;28.20;63.60;;;;;;5052625;28;20406;-86
2022/07/02 07:51:07;;;;;;;4.75;1.80;;;28.30;63.90;;;;;;5061244;28;20029;-85
2022/07/02 07:53:33;;;;;;;5.40;2.15;;;28.30;63.70;;;;;;5050364;28;20248;-75
2022/07/02 07:55:59;;;;;;;5.80;2.40;;;28.40;63.50;;;;;;5054834;28;20126;-75
2022/07/02 07:58:25;;;;;;;8.75;2.90;;;28.40;63.90;;;;;;5041285;28;20048;-77
2022/07/02 08:00:51;;;;;;;5.65;2.00;;;28.50;62.40;;;;;;5038209;28;20029;-76
2022/07/02 08:03:19;;;;;;;9.07;2.80;;;28.60;63.10;;;;;;5052879;28;20470;-76
2022/07/02 08:05:46;;;;;;;7.32;1.83;;;28.50;62.00;;;;;;5054264;28;20075;-78
2022/07/02 08:08:14;;;;;;;5.82;1.90;;;28.70;62.80;;;;;;5052225;28;20029;-82
2022/07/02 08:10:41;;;;;;;5.22;1.92;;;28.70;63.30;;;;;;5052795;28;20485;-76
2022/07/02 08:13:08;;;;;;;5.60;2.13;;;28.80;63.00;;;;;;5053821;28;20037;-75
2022/07/02 08:15:33;;;;;;;3.25;1.75;;;28.90;62.90;;;;;;5051712;28;20032;-76
2022/07/02 08:17:59;;;;;;;3.22;1.65;;;29.00;62.70;;;;;;5052692;28;20029;-87
2022/07/02 08:20:25;;;;;;;4.13;1.85;;;29.00;61.80;;;;;;5051029;28;20458;-86
2022/07/02 08:22:51;;;;;;;9.15;2.38;;;29.10;62.20;;;;;;5059222;28;20029;-86
2022/07/02 08:25:18;;;;;;;6.55;2.15;;;29.20;61.60;;;;;;5050514;28;20075;-77
2022/07/02 08:27:44;;;;;;;4.50;2.30;;;29.20;61.90;;;;;;5047922;28;20067;-78
2022/07/02 08:30:11;;;;;;;7.15;1.90;;;29.30;61.50;;;;;;5053364;28;20142;-77
2022/07/02 08:32:37;;;;;;;4.03;1.58;;;29.30;61.30;;;;;;5053381;28;20086;-77
2022/07/02 08:35:04;;;;;;;4.57;2.30;;;29.40;61.60;;;;;;5051434;28;20500;-77
2022/07/02 08:37:31;;;;;;;5.10;1.85;;;29.50;61.60;;;;;;5051812;28;20032;-76
2022/07/02 08:39:56;;;;;;;5.35;1.80;;;29.60;61.40;;;;;;5046626;28;20079;-77
2022/07/02 08:42:27;;;;;;;3.40;1.98;;;29.60;60.60;;;;;;5048243;28;20025;-77
2022/07/02 08:44:56;;;;;;;8.38;2.15;;;29.70;59.30;;;;;;5050310;28;20546;-77
2022/07/02 08:47:23;;;;;;;6.38;2.42;;;29.80;60.60;;;;;;5050879;28;20025;-77
2022/07/02 08:49:54;;;;;;;3.28;2.08;;;29.80;59.60;;;;;;5048845;28;20025;-76
2022/07/02 08:52:22;;;;;;;8.43;2.10;;;29.80;60.30;;;;;;5053254;28;20036;-77
2022/07/02 08:54:48;;;;;;;3.15;2.00;;;29.90;59.40;;;;;;5051989;28;20021;-76
2022/07/02 08:57:15;;;;;;;5.15;1.63;;;29.90;59.60;;;;;;5052693;28;20033;-76
2022/07/02 08:59:41;;;;;;;7.05;1.90;;;30.00;60.00;;;;;;5052978;28;20040;-76
2022/07/02 09:02:08;;;;;;;6.00;2.50;;;30.10;60.50;;;;;;5050212;28;20036;-77
2022/07/02 09:04:37;;;;;;;3.40;1.65;;;30.20;59.10;;;;;;5048079;28;20040;-77
2022/07/02 09:07:03;;;;;;;6.07;2.10;;;30.30;59.80;;;;;;5052797;28;20029;-77
2022/07/02 09:09:33;;;;;;;5.18;1.85;;;30.30;59.40;;;;;;5049511;28;20500;-77
2022/07/02 09:11:59;;;;;;;6.70;1.60;;;30.40;59.20;;;;;;5048522;28;20025;-76
2022/07/02 09:14:25;;;;;;;4.05;1.92;;;30.50;59.60;;;;;;5050515;28;20025;-75
2022/07/02 09:16:51;;;;;;;4.60;1.73;;;30.50;57.10;;;;;;5051386;28;20045;-73
2022/07/02 09:19:18;;;;;;;4.47;1.63;;;30.60;58.30;;;;;;5052092;28;20037;-76
2022/07/02 09:21:47;;;;;;;6.82;1.92;;;30.60;57.10;;;;;;5051114;28;20024;-84
2022/07/02 09:24:13;;;;;;;6.28;2.05;;;30.70;57.90;;;;;;5050809;28;20027;-86
2022/07/02 09:26:39;;;;;;;5.38;1.80;;;30.70;58.00;;;;;;5050752;28;20078;-83
2022/07/02 09:29:05;;;;;;;6.18;2.25;;;30.80;56.90;;;;;;5050427;28;20052;-83
2022/07/02 09:31:31;;;;;;;4.35;2.08;;;30.90;56.40;;;;;;5051131;28;20064;-83
2022/07/02 09:33:58;;;;;;;5.68;1.60;;;30.90;56.40;;;;;;5052113;28;20440;-83
2022/07/02 09:36:24;;;;;;;3.08;1.30;;;31.00;56.70;;;;;;5050674;28;20028;-83
2022/07/02 09:38:52;;;;;;;3.55;1.95;;;31.10;57.20;;;;;;5051369;28;20064;-83
2022/07/02 09:41:20;;;;;;;3.70;1.90;;;31.20;57.10;;;;;;5052548;28;20048;-83
2022/07/02 09:43:52;;;;;;;11.30;2.10;;;31.30;56.70;;;;;;5050928;28;20124;-83
2022/07/02 09:46:20;;;;;;;14.57;2.97;;;31.40;54.10;;;;;;5052461;28;20024;-84
2022/07/02 09:48:47;;;;;;;9.85;2.60;;;31.40;54.30;;;;;;5053196;28;20036;-83
2022/07/02 09:51:14;;;;;;;3.10;1.45;;;31.40;53.50;;;;;;5052671;28;20500;-83
2022/07/02 09:53:47;;;;;;;5.47;1.88;;;31.40;55.60;;;;;;5052871;28;20029;-84
2022/07/02 09:56:13;;;;;;;4.60;2.30;;;31.60;55.70;;;;;;5053091;28;20040;-85
2022/07/02 09:58:38;;;;;;;4.57;2.15;;;31.70;55.90;;;;;;5052808;28;20032;-84
2022/07/02 10:01:04;;;;;;;4.10;1.65;;;31.80;56.20;;;;;;5052887;28;20481;-83
2022/07/02 10:03:30;;;;;;;4.22;1.58;;;31.80;56.10;;;;;;5048874;28;20034;-83
2022/07/02 10:05:56;;;;;;;5.75;2.00;;;31.90;55.60;;;;;;5046204;28;20025;-83
2022/07/02 10:08:23;;;;;;;5.80;1.90;;;31.90;53.50;;;;;;5043493;28;20029;-83
2022/07/02 10:10:49;;;;;;;3.67;1.67;;;31.90;53.90;;;;;;5042071;28;20477;-82
2022/07/02 10:13:16;;;;;;;4.25;2.22;;;32.00;55.20;;;;;;5041057;28;20029;-82
2022/07/02 10:16:04;;;;;;;6.70;2.22;;;32.10;55.50;;;;;;5044647;28;20029;-83
2022/07/02 10:18:30;;;;;;;4.72;1.50;;;32.10;53.80;;;;;;5043500;28;20046;-82
2022/07/02 10:20:57;;;;;;;3.63;1.70;;;32.20;53.40;;;;;;5041446;28;20075;-82
2022/07/02 10:23:23;;;;;;;3.65;1.88;;;32.30;54.50;;;;;;5040327;28;20029;-82
2022/07/02 10:25:50;;;;;;;7.00;2.45;;;32.40;54.00;;;;;;5043352;28;20360;-82
2022/07/02 10:28:16;;;;;;;9.70;2.35;;;32.50;54.00;;;;;;5040953;28;20052;-83
2022/07/02 10:30:43;;;;;;;4.85;2.00;;;32.50;53.50;;;;;;5039432;28;20033;-82
2022/07/02 10:33:46;;;;;;;4.05;1.58;;;32.60;54.50;;;;;;5041941;28;20053;-83
2022/07/02 10:36:15;;;;;;;4.20;1.73;;;32.70;54.80;;;;;;5042030;28;20488;-83
2022/07/02 10:38:41;;;;;;;2.70;1.50;;;32.80;54.60;;;;;;5044505;28;20067;-83
2022/07/02 10:41:09;;;;;;;8.07;2.28;;;32.90;54.60;;;;;;5040279;28;20049;-83
2022/07/02 10:43:38;;;;;;;3.60;1.80;;;33.10;55.10;;;;;;5039981;28;20470;-83
2022/07/02 10:46:13;;;;;;;3.90;1.60;;;33.20;54.90;;;;;;5038854;28;20022;-83
2022/07/02 10:48:51;;;;;;;3.38;1.67;;;33.30;55.10;;;;;;5047648;28;20047;-83
2022/07/02 10:51:25;;;;;;;8.13;2.83;;;33.50;55.40;;;;;;5040116;28;20026;-83
2022/07/02 10:53:53;;;;;;;4.28;2.25;;;33.60;53.20;;;;;;5048520;28;20024;-82
2022/07/02 10:56:19;;;;;;;6.72;2.33;;;33.60;54.80;;;;;;5053128;28;20027;-84
2022/07/02 10:58:45;;;;;;;6.47;1.90;;;33.80;54.90;;;;;;5041099;28;20377;-83
2022/07/02 11:01:14;;;;;;;4.35;2.00;;;33.90;54.50;;;;;;5048020;28;20026;-83
2022/07/02 11:04:00;;;;;;;11.48;2.42;;;34.00;54.30;;;;;;5043408;28;20033;-83
2022/07/02 11:06:30;;;;;;;3.33;1.73;;;34.10;54.30;;;;;;5048618;28;20088;-83
2022/07/02 11:09:06;;;;;;;4.72;1.67;;;34.30;54.30;;;;;;5047916;28;20503;-83
2022/07/02 11:11:35;;;;;;;4.85;1.50;;;34.50;54.20;;;;;;5048324;28;20033;-83
2022/07/02 11:14:08;;;;;;;5.20;2.28;;;34.60;53.70;;;;;;5039846;28;20049;-83
2022/07/02 11:16:43;;;;;;;7.80;1.75;;;34.70;53.70;;;;;;5051168;28;20025;-83
2022/07/02 11:19:12;;;;;;;5.57;1.95;;;34.90;53.50;;;;;;5048770;28;20039;-83
2022/07/02 11:21:39;;;;;;;7.53;1.85;;;35.10;52.50;;;;;;5047055;28;20016;-82
2022/07/02 11:24:06;;;;;;;7.50;2.00;;;35.30;52.40;;;;;;5043265;28;20116;-83
2022/07/02 11:26:32;;;;;;;5.32;2.10;;;35.50;52.20;;;;;;5037751;28;20018;-83
2022/07/02 11:29:04;;;;;;;5.35;1.73;;;35.60;51.80;;;;;;5035878;28;20136;-83
2022/07/02 11:31:31;;;;;;;3.65;1.40;;;35.80;51.20;;;;;;5053844;28;20033;-83
2022/07/02 11:33:57;;;;;;;2.63;1.73;;;36.00;50.60;;;;;;5053835;28;20041;-83
2022/07/02 11:36:24;;;;;;;5.65;1.85;;;36.30;50.70;;;;;;5055019;28;20096;-83
2022/07/02 11:38:51;;;;;;;6.75;1.90;;;36.60;50.20;;;;;;5054482;28;20029;-83
2022/07/02 11:41:24;;;;;;;3.33;1.80;;;37.10;49.50;;;;;;5055145;28;20067;-84
2022/07/02 11:43:53;;;;;;;6.93;2.03;;;37.50;48.40;;;;;;5055333;28;20029;-83
2022/07/02 11:46:21;;;;;;;3.78;1.85;;;37.80;48.20;;;;;;5044036;28;20032;-84
2022/07/02 11:48:48;;;;;;;5.18;2.10;;;38.20;47.70;;;;;;5053487;28;20033;-79
2022/07/02 11:51:14;;;;;;;4.93;1.90;;;38.60;47.20;;;;;;5051448;28;20130;-79
2022/07/02 11:53:40;;;;;;;3.22;1.63;;;38.80;46.70;;;;;;5038367;28;20037;-82
2022/07/02 11:56:15;;;;;;;5.78;2.00;;;39.00;46.10;;;;;;5050738;28;20021;-84
2022/07/02 11:58:48;;;;;;;6.38;1.45;;;39.20;45.50;;;;;;5049976;28;20082;-85
2022/07/02 12:01:18;;;;;;;5.70;2.33;;;39.40;45.10;;;;;;5043623;28;20526;-85
2022/07/02 12:03:49;;;;;;;11.18;2.60;;;39.60;45.40;;;;;;5047193;28;20028;-80
2022/07/02 12:06:16;;;;;;;5.53;1.83;;;39.70;44.70;;;;;;5039938;28;20458;-78
2022/07/02 12:08:42;;;;;;;3.00;1.85;;;39.80;44.20;;;;;;5036196;28;20025;-84
2022/07/02 12:11:18;;;;;;;4.38;1.70;;;39.90;44.00;;;;;;5054104;28;20029;-84
2022/07/02 12:13:45;;;;;;;6.82;2.17;;;40.00;43.50;;;;;;5042439;28;20374;-84
2022/07/02 12:16:32;;;;;;;6.25;2.00;;;39.90;43.40;;;;;;5039102;28;20457;-84
2022/07/02 12:19:05;;;;;;;7.28;1.77;;;40.00;43.50;;;;;;5035134;28;20108;-84
2022/07/02 12:21:36;;;;;;;7.38;1.83;;;40.10;43.50;;;;;;5035201;28;20018;-84
2022/07/02 12:24:05;;;;;;;4.15;1.75;;;40.10;43.10;;;;;;5035432;28;20080;-85
2022/07/02 12:26:31;;;;;;;5.63;1.85;;;40.20;43.50;;;;;;5034957;28;20022;-84
2022/07/02 12:32:02;;;;;;;4.45;1.70;;;40.40;41.30;;;;;;5037387;28;20129;-86
2022/07/02 12:34:40;;;;;;;5.28;2.03;;;40.20;42.60;;;;;;5054614;28;20035;-87
2022/07/02 12:37:07;;;;;;;10.27;2.33;;;40.20;42.60;;;;;;5054656;28;20033;-86
2022/07/02 12:39:41;;;;;;;8.70;2.15;;;40.30;43.00;;;;;;5054594;28;20075;-86
2022/07/02 12:42:21;;;;;;;10.48;2.42;;;40.40;42.40;;;;;;5054465;28;20033;-86
2022/07/02 12:45:00;;;;;;;4.35;1.70;;;40.50;42.70;;;;;;5053178;28;20083;-87
2022/07/02 12:47:36;;;;;;;7.75;2.22;;;40.60;42.40;;;;;;5054120;28;20055;-84
2022/07/02 12:50:09;;;;;;;6.53;2.53;;;40.70;42.00;;;;;;5054931;28;20025;-85
2022/07/02 12:52:53;;;;;;;4.78;2.20;;;40.70;42.50;;;;;;5066735;28;20419;-78
2022/07/02 12:55:23;;;;;;;3.92;2.13;;;40.70;42.50;;;;;;5054420;28;20389;-84
2022/07/02 12:57:49;;;;;;;4.97;1.83;;;40.80;42.40;;;;;;5053076;28;20044;-78
2022/07/02 13:00:15;;;;;;;4.57;2.10;;;40.80;42.40;;;;;;5054192;28;20021;-84
2022/07/02 13:02:41;;;;;;;7.50;2.13;;;40.80;42.20;;;;;;5054296;28;20108;-78